VOPC

Pondicherry Airport

India
METAR VOPC 200700Z 27008KT 6000 FEW020 SCT100 32/24 Q1005 NOSIG
Observed Flight Rules
Sep-20 @ 07:00 UTC (10 hours ago) Marginal Visual Flight Rules
Wind Visibility Clouds
270° at 8 knots 6,003 meters
  • Few at 2,000' AGL
  • Scattered at 10,000' AGL
Temperatures Readings
Current 32°C / 90°F
Dewpoint 24°C / 75°F
Humidity 63%
Altimeter 29.68" Hg
Pressure 1005 hPa
Elevation 36
METAR VOPC 200700Z 27008KT 6000 FEW020 SCT100 32/24 Q1005 NOSIG
Observed Flight Rules
Sep-20 @ 07:00 UTC
(10 hours ago)
MVFR
Wind Visibility
270° at 8 knots 6,003 meters
Clouds
  • Few at 2,000' AGL
  • Scattered at 10,000' AGL
Temperature Dewpoint
32°C / 90°F 24°C / 75°F
Humidity Altimeter Pressure
63% 29.68" Hg 1005 hPa